createdAt,value
2022-10-31T00:00:35.207Z,28.43
2022-10-31T00:03:02.427Z,33.00
2022-10-31T00:05:29.473Z,29.93
2022-10-31T00:07:55.990Z,27.83
2022-10-31T00:10:22.854Z,33.77
2022-10-31T00:12:49.998Z,30.77
2022-10-31T00:15:20.148Z,29.80
2022-10-31T00:17:47.009Z,37.13
2022-10-31T00:20:13.820Z,36.73
2022-10-31T00:22:40.686Z,35.40
2022-10-31T00:25:07.839Z,36.57
2022-10-31T00:27:34.691Z,35.83
2022-10-31T00:30:02.339Z,28.87
2022-10-31T00:32:30.153Z,25.37
2022-10-31T00:34:57.022Z,18.10
2022-10-31T00:37:23.878Z,27.43
2022-10-31T00:39:50.721Z,24.83
2022-10-31T00:42:17.596Z,25.13
2022-10-31T00:44:45.857Z,29.63
2022-10-31T00:47:13.097Z,30.60
2022-10-31T00:49:39.956Z,31.57
2022-10-31T00:52:06.816Z,27.57
2022-10-31T00:54:33.674Z,30.77
2022-10-31T00:57:00.506Z,32.93
2022-10-31T00:59:27.366Z,34.03
2022-10-31T01:01:54.291Z,34.43
2022-10-31T01:04:21.949Z,33.03
2022-10-31T01:06:48.777Z,34.57
2022-10-31T01:09:15.598Z,31.80
2022-10-31T01:11:42.720Z,32.87
2022-10-31T01:14:09.892Z,33.80
2022-10-31T01:16:36.833Z,33.63
2022-10-31T01:19:03.958Z,33.73
2022-10-31T01:21:31.198Z,31.10
2022-10-31T01:23:58.051Z,24.20
2022-10-31T01:26:25.964Z,32.67
2022-10-31T01:28:55.172Z,24.80
2022-10-31T01:31:24.226Z,31.03
2022-10-31T01:33:51.444Z,31.97
2022-10-31T01:36:19.811Z,25.37
2022-10-31T01:38:48.229Z,27.27
2022-10-31T01:41:17.713Z,30.23
2022-10-31T01:43:50.460Z,31.10
2022-10-31T01:46:21.750Z,39.70
2022-10-31T01:48:49.226Z,37.67
2022-10-31T01:51:18.678Z,34.00
2022-10-31T01:53:46.973Z,32.63
2022-10-31T01:56:15.994Z,35.40
2022-10-31T01:58:43.012Z,35.13
2022-10-31T02:01:11.088Z,38.33
2022-10-31T02:03:38.065Z,36.63
2022-10-31T02:06:09.097Z,35.77
2022-10-31T02:08:36.888Z,31.87
2022-10-31T02:11:04.548Z,35.97
2022-10-31T02:13:31.411Z,32.33
2022-10-31T02:15:59.783Z,31.83
2022-10-31T02:18:29.251Z,32.33
2022-10-31T02:21:11.753Z,31.47
2022-10-31T02:24:22.467Z,31.90
2022-10-31T02:26:58.229Z,30.00
2022-10-31T02:30:03.839Z,29.80
2022-10-31T02:32:38.996Z,36.37
2022-10-31T02:35:12.527Z,33.30
2022-10-31T02:37:45.890Z,35.90
2022-10-31T02:40:18.313Z,36.67
2022-10-31T02:42:51.675Z,33.10
2022-10-31T02:45:28.263Z,33.53
2022-10-31T02:47:59.367Z,31.67
2022-10-31T02:50:30.677Z,32.70
2022-10-31T02:52:57.540Z,31.47
2022-10-31T02:55:57.083Z,32.97
2022-10-31T02:58:29.514Z,30.77
2022-10-31T03:01:21.019Z,29.63
2022-10-31T03:04:17.561Z,30.20
2022-10-31T03:06:50.276Z,30.10
2022-10-31T03:09:23.384Z,29.90
2022-10-31T03:11:58.510Z,29.27
2022-10-31T03:14:34.608Z,25.60
2022-10-31T03:17:05.965Z,31.00
2022-10-31T03:19:41.086Z,27.93
2022-10-31T03:22:16.067Z,31.50
2022-10-31T03:24:43.280Z,29.63
2022-10-31T03:27:13.876Z,30.30
2022-10-31T03:29:42.943Z,29.70
2022-10-31T03:32:13.127Z,31.33
2022-10-31T03:34:43.284Z,30.10
2022-10-31T03:37:12.033Z,29.20
2022-10-31T03:39:41.313Z,26.60
2022-10-31T03:42:12.007Z,30.03
2022-10-31T03:44:42.139Z,30.13
2022-10-31T03:47:09.037Z,28.47
2022-10-31T03:49:36.340Z,28.23
2022-10-31T03:52:14.138Z,26.93
2022-10-31T03:54:44.883Z,24.67
2022-10-31T03:57:17.806Z,28.80
2022-10-31T03:59:49.797Z,25.63
2022-10-31T04:02:19.406Z,28.13
2022-10-31T04:04:48.124Z,29.87
2022-10-31T04:07:16.429Z,31.00
2022-10-31T04:09:45.932Z,32.70
2022-10-31T04:12:17.541Z,30.00
2022-10-31T04:14:48.369Z,28.37
2022-10-31T04:17:18.329Z,29.53
2022-10-31T04:19:45.224Z,27.03
2022-10-31T04:22:12.138Z,26.50
2022-10-31T04:24:41.101Z,26.20
2022-10-31T04:27:08.169Z,28.10
2022-10-31T04:29:34.688Z,27.97
2022-10-31T04:32:01.291Z,28.97
2022-10-31T04:34:28.159Z,29.43
2022-10-31T04:36:54.995Z,31.60
2022-10-31T04:39:25.727Z,30.23
2022-10-31T04:41:54.275Z,28.87
2022-10-31T04:44:21.161Z,29.17
2022-10-31T04:46:48.165Z,26.03
2022-10-31T04:49:15.108Z,23.60
2022-10-31T04:51:41.965Z,24.47
2022-10-31T04:54:08.878Z,26.50
2022-10-31T04:56:35.721Z,26.20
2022-10-31T04:59:03.316Z,27.13
2022-10-31T05:01:30.260Z,27.10
2022-10-31T05:03:58.297Z,24.63
2022-10-31T05:06:28.173Z,24.33
2022-10-31T05:08:57.389Z,24.33
2022-10-31T05:11:24.250Z,25.53
2022-10-31T05:13:51.176Z,27.60
2022-10-31T05:16:18.674Z,26.60
2022-10-31T05:18:45.523Z,28.37
2022-10-31T05:21:12.338Z,26.47
2022-10-31T05:23:41.126Z,28.53
2022-10-31T05:26:11.087Z,27.53
2022-10-31T05:28:37.927Z,29.33
2022-10-31T05:31:05.016Z,29.03
2022-10-31T05:33:32.301Z,31.20
2022-10-31T05:35:59.153Z,30.30
2022-10-31T05:38:26.038Z,30.77
2022-10-31T05:40:57.835Z,31.20
2022-10-31T05:43:24.760Z,31.00
2022-10-31T05:45:53.322Z,29.93
2022-10-31T05:48:21.314Z,30.20
2022-10-31T05:50:49.579Z,29.07
2022-10-31T05:53:16.457Z,28.17
2022-10-31T05:55:44.493Z,29.97
2022-10-31T05:58:11.503Z,30.00
2022-10-31T06:00:38.412Z,27.70
2022-10-31T06:03:06.746Z,30.20
2022-10-31T06:05:33.990Z,28.57
2022-10-31T06:08:02.118Z,29.13
2022-10-31T06:10:29.422Z,29.40
2022-10-31T06:12:56.440Z,28.60
2022-10-31T06:15:24.507Z,27.67
2022-10-31T06:18:02.321Z,28.37
2022-10-31T06:20:29.770Z,29.23
2022-10-31T06:22:56.879Z,31.53
2022-10-31T06:25:24.718Z,31.67
2022-10-31T06:27:51.572Z,33.50
2022-10-31T06:30:19.743Z,32.67
2022-10-31T06:32:46.710Z,32.87
2022-10-31T06:35:13.613Z,33.60
2022-10-31T06:37:40.495Z,34.83
2022-10-31T06:40:07.978Z,35.37
2022-10-31T06:42:35.238Z,35.30
2022-10-31T06:45:02.210Z,35.83
2022-10-31T06:47:29.053Z,37.00
2022-10-31T06:49:55.929Z,35.70
2022-10-31T06:52:31.065Z,34.57
2022-10-31T06:54:57.935Z,36.10
2022-10-31T06:57:25.268Z,34.30
2022-10-31T06:59:52.441Z,34.70
2022-10-31T07:02:19.394Z,35.27
2022-10-31T07:04:46.288Z,35.93
2022-10-31T07:07:13.182Z,37.27
2022-10-31T07:09:40.434Z,39.23
2022-10-31T07:12:08.103Z,38.63
2022-10-31T07:14:35.125Z,38.13
2022-10-31T07:17:02.381Z,38.30
2022-10-31T07:19:33.459Z,38.23
2022-10-31T07:22:06.039Z,39.00
2022-10-31T07:24:32.911Z,39.03
2022-10-31T07:29:31.622Z,38.33
2022-10-31T07:31:58.489Z,37.13
2022-10-31T07:34:25.639Z,37.77
2022-10-31T07:36:52.581Z,35.70
2022-10-31T07:39:19.441Z,34.40
2022-10-31T07:41:46.320Z,29.77
2022-10-31T07:44:13.184Z,25.17
2022-10-31T07:46:40.033Z,21.83
2022-10-31T07:49:07.369Z,23.07
2022-10-31T07:51:34.858Z,20.97
2022-10-31T07:54:01.841Z,21.70
2022-10-31T07:56:28.717Z,19.67
2022-10-31T07:58:55.847Z,21.27
2022-10-31T08:01:22.745Z,20.77
2022-10-31T08:03:49.593Z,19.13
2022-10-31T08:06:16.437Z,18.23
2022-10-31T08:08:43.936Z,18.53
2022-10-31T08:11:10.799Z,19.27
2022-10-31T08:13:37.633Z,18.00
2022-10-31T08:16:05.022Z,18.83
2022-10-31T08:18:31.946Z,17.37
2022-10-31T08:20:58.787Z,16.90
2022-10-31T08:23:25.484Z,18.17
2022-10-31T08:25:52.743Z,17.20
2022-10-31T08:28:19.600Z,16.30
2022-10-31T08:30:47.569Z,16.43
2022-10-31T08:33:17.154Z,17.07
2022-10-31T08:35:44.000Z,15.13
2022-10-31T08:38:11.892Z,15.80
2022-10-31T08:40:39.036Z,15.47
2022-10-31T08:43:11.897Z,15.43
2022-10-31T08:45:39.001Z,14.97
2022-10-31T08:48:07.625Z,15.00
2022-10-31T08:50:35.990Z,14.27
2022-10-31T08:53:05.658Z,15.17
2022-10-31T08:55:34.369Z,16.37
2022-10-31T08:58:01.611Z,15.07
2022-10-31T09:00:29.524Z,14.70
2022-10-31T09:02:57.664Z,15.53
2022-10-31T09:05:24.496Z,15.03
2022-10-31T09:07:51.353Z,14.60
2022-10-31T09:10:18.241Z,14.87
2022-10-31T09:12:45.121Z,15.17
2022-10-31T09:15:11.939Z,14.50
2022-10-31T09:17:39.223Z,14.83
2022-10-31T09:20:06.484Z,15.37
2022-10-31T09:22:33.306Z,13.97
2022-10-31T09:25:00.153Z,14.30
2022-10-31T09:27:26.981Z,16.10
2022-10-31T09:29:53.874Z,15.13
2022-10-31T09:32:20.716Z,15.73
2022-10-31T09:34:47.911Z,15.03
2022-10-31T09:37:14.737Z,16.43
2022-10-31T09:39:41.626Z,17.20
2022-10-31T09:42:36.951Z,17.37
2022-10-31T09:45:11.537Z,16.63
2022-10-31T09:48:00.468Z,16.03
2022-10-31T09:50:32.085Z,18.03
2022-10-31T09:53:04.320Z,18.70
2022-10-31T09:55:37.923Z,15.30
2022-10-31T09:58:05.509Z,16.63
2022-10-31T10:00:33.663Z,15.77
2022-10-31T10:03:07.371Z,16.53
2022-10-31T10:05:41.842Z,17.73
2022-10-31T10:08:12.924Z,17.80
2022-10-31T10:10:49.639Z,19.60
2022-10-31T10:13:41.281Z,19.80
2022-10-31T10:16:17.282Z,20.10
2022-10-31T10:18:55.278Z,20.90
2022-10-31T10:21:32.065Z,20.03
2022-10-31T10:24:12.921Z,20.03
2022-10-31T10:26:43.821Z,19.20
2022-10-31T10:29:26.165Z,20.50
2022-10-31T10:31:53.912Z,18.67
2022-10-31T10:34:25.122Z,19.20
2022-10-31T10:36:56.916Z,21.17
2022-10-31T10:39:26.986Z,20.13
2022-10-31T10:42:12.067Z,20.07
2022-10-31T10:44:59.397Z,20.83
2022-10-31T10:47:40.933Z,21.43
2022-10-31T10:50:14.673Z,20.27
2022-10-31T10:52:51.042Z,19.00
2022-10-31T10:55:28.758Z,18.53
2022-10-31T10:57:58.689Z,17.43
2022-10-31T11:00:27.775Z,17.07
2022-10-31T11:02:54.920Z,15.93
2022-10-31T11:05:26.539Z,15.00
2022-10-31T11:07:53.859Z,16.27
2022-10-31T11:10:21.083Z,15.73
2022-10-31T11:13:04.168Z,14.93
2022-10-31T11:15:34.308Z,15.17
2022-10-31T11:18:00.908Z,15.63
2022-10-31T11:20:32.081Z,16.80
2022-10-31T11:23:05.794Z,16.77
2022-10-31T11:25:33.120Z,16.37
2022-10-31T11:28:00.897Z,18.43
2022-10-31T11:30:28.161Z,17.73
2022-10-31T11:32:55.179Z,22.33
2022-10-31T11:35:24.640Z,17.83
2022-10-31T11:37:54.114Z,18.17
2022-10-31T11:40:24.637Z,18.83
2022-10-31T11:42:55.360Z,17.30
2022-10-31T11:45:31.220Z,16.17
2022-10-31T11:48:00.730Z,15.80
2022-10-31T11:50:33.126Z,16.67
2022-10-31T11:53:00.244Z,16.40
2022-10-31T11:55:33.350Z,16.73
2022-10-31T11:58:00.626Z,16.80
2022-10-31T12:00:31.297Z,17.30
2022-10-31T12:03:34.200Z,16.87
2022-10-31T12:06:05.851Z,17.23
2022-10-31T12:08:36.086Z,17.50
2022-10-31T12:11:12.131Z,17.30
2022-10-31T12:13:49.178Z,17.13
2022-10-31T12:16:22.086Z,20.23
2022-10-31T12:18:59.132Z,19.37
2022-10-31T12:21:54.007Z,20.93
2022-10-31T12:24:43.542Z,19.43
2022-10-31T12:27:23.695Z,19.30
2022-10-31T12:30:07.758Z,20.67
2022-10-31T12:32:43.527Z,19.13
2022-10-31T12:35:33.066Z,20.93
2022-10-31T12:38:36.000Z,21.27
2022-10-31T12:41:18.174Z,20.70
2022-10-31T12:43:51.901Z,20.93
2022-10-31T12:46:26.324Z,20.77
2022-10-31T12:49:27.936Z,21.63
2022-10-31T12:52:07.993Z,21.23
2022-10-31T12:54:49.498Z,24.07
2022-10-31T12:57:23.672Z,22.27
2022-10-31T12:59:54.434Z,21.27
2022-10-31T13:02:25.541Z,24.37
2022-10-31T13:04:57.486Z,24.43
2022-10-31T13:07:28.139Z,21.90
2022-10-31T13:10:02.080Z,22.53
2022-10-31T13:12:33.378Z,20.07
2022-10-31T13:15:12.775Z,22.10
2022-10-31T13:17:44.099Z,22.20
2022-10-31T13:20:20.325Z,21.07
2022-10-31T13:22:49.938Z,21.93
2022-10-31T13:25:20.043Z,23.23
2022-10-31T13:27:51.660Z,23.53
2022-10-31T13:30:21.216Z,21.07
2022-10-31T13:32:55.372Z,21.83
2022-10-31T13:35:28.550Z,22.33
2022-10-31T13:38:06.461Z,20.93
2022-10-31T13:40:44.865Z,20.70
2022-10-31T13:43:23.066Z,22.93
2022-10-31T13:45:52.676Z,21.93
2022-10-31T13:48:34.466Z,23.30
2022-10-31T13:51:04.743Z,20.97
2022-10-31T13:53:44.670Z,22.60
2022-10-31T13:56:22.572Z,22.07
2022-10-31T13:59:01.789Z,27.10
2022-10-31T14:01:30.859Z,26.10
2022-10-31T14:04:13.069Z,24.97
2022-10-31T14:06:46.169Z,21.37
2022-10-31T14:09:32.651Z,24.33
2022-10-31T14:12:03.532Z,24.80
2022-10-31T14:14:35.930Z,22.50
2022-10-31T14:17:03.758Z,21.53
2022-10-31T14:19:30.706Z,21.67
2022-10-31T14:21:58.304Z,22.20
2022-10-31T14:24:37.325Z,24.77
2022-10-31T14:27:25.851Z,23.00
2022-10-31T14:29:53.015Z,22.20
2022-10-31T14:32:23.939Z,27.87
2022-10-31T14:34:56.150Z,22.57
2022-10-31T14:37:39.603Z,26.80
2022-10-31T14:40:24.954Z,27.07
2022-10-31T14:43:12.637Z,22.63
2022-10-31T14:45:50.317Z,23.27
2022-10-31T14:48:33.582Z,22.27
2022-10-31T14:51:02.561Z,24.60
2022-10-31T14:53:33.454Z,22.33
2022-10-31T14:56:05.764Z,22.40
2022-10-31T14:58:38.952Z,25.70
2022-10-31T15:01:06.300Z,22.07
2022-10-31T15:03:36.741Z,25.33
2022-10-31T15:06:10.185Z,23.10
2022-10-31T15:08:41.420Z,24.97
2022-10-31T15:11:12.915Z,25.80
2022-10-31T15:13:44.336Z,26.90
2022-10-31T15:16:13.921Z,26.97
2022-10-31T15:18:49.935Z,27.50
2022-10-31T15:21:17.930Z,29.40
2022-10-31T15:23:45.203Z,29.33
2022-10-31T15:26:18.045Z,30.30
2022-10-31T15:28:44.970Z,29.80
2022-10-31T15:31:16.233Z,29.53
2022-10-31T15:33:48.565Z,29.63
2022-10-31T15:36:23.934Z,33.77
2022-10-31T15:38:56.663Z,32.43
2022-10-31T15:41:35.029Z,31.23
2022-10-31T15:44:07.578Z,36.70
2022-10-31T15:46:34.577Z,54.53
2022-10-31T15:49:01.933Z,39.47
2022-10-31T15:51:35.128Z,36.10
2022-10-31T15:54:02.079Z,34.87
2022-10-31T15:56:30.790Z,33.73
2022-10-31T15:58:59.582Z,33.77
2022-10-31T16:01:29.054Z,34.83
2022-10-31T16:04:20.782Z,56.30
2022-10-31T16:06:59.077Z,44.43
2022-10-31T16:09:26.612Z,36.53
2022-10-31T16:11:54.103Z,36.30
2022-10-31T16:14:26.657Z,33.60
2022-10-31T16:16:56.233Z,35.07
2022-10-31T16:19:27.878Z,33.97
2022-10-31T16:21:56.873Z,35.20
2022-10-31T16:24:29.966Z,33.53
2022-10-31T16:27:02.568Z,34.13
2022-10-31T16:29:34.784Z,34.53
2022-10-31T16:32:01.833Z,37.67
2022-10-31T16:34:29.342Z,35.13
2022-10-31T16:36:56.603Z,34.97
2022-10-31T16:39:23.452Z,38.67
2022-10-31T16:41:56.597Z,35.53
2022-10-31T16:44:25.284Z,35.47
2022-10-31T16:47:09.402Z,36.43
2022-10-31T16:49:36.677Z,35.83
2022-10-31T16:52:03.631Z,36.10
2022-10-31T16:54:30.723Z,34.83
2022-10-31T16:56:59.356Z,36.37
2022-10-31T16:59:26.361Z,38.80
2022-10-31T17:01:54.413Z,38.23
2022-10-31T17:04:21.631Z,57.77
2022-10-31T17:06:49.140Z,40.80
2022-10-31T17:09:17.182Z,43.67
2022-10-31T17:11:54.455Z,43.80
2022-10-31T17:14:21.891Z,47.43
2022-10-31T17:16:48.768Z,46.03
2022-10-31T17:19:16.045Z,49.77
2022-10-31T17:21:43.067Z,50.33
2022-10-31T17:24:13.039Z,48.67
2022-10-31T17:26:40.025Z,46.83
2022-10-31T17:29:06.885Z,45.53
2022-10-31T17:31:35.889Z,47.63
2022-10-31T17:34:04.399Z,49.23
2022-10-31T17:36:31.795Z,48.77
2022-10-31T17:38:59.260Z,48.80
2022-10-31T17:41:26.623Z,48.87
2022-10-31T17:43:55.802Z,54.50
2022-10-31T17:46:22.677Z,43.40
2022-10-31T17:48:49.626Z,45.73
2022-10-31T17:51:17.678Z,47.97
2022-10-31T17:53:45.068Z,47.30
2022-10-31T17:56:12.640Z,49.73
2022-10-31T17:58:40.796Z,48.83
2022-10-31T18:01:09.818Z,48.53
2022-10-31T18:03:37.342Z,49.50
2022-10-31T18:06:04.548Z,81.77
2022-10-31T18:08:34.836Z,51.60
2022-10-31T18:11:08.463Z,46.93
2022-10-31T18:13:35.587Z,48.13
2022-10-31T18:16:07.600Z,48.30
2022-10-31T18:18:34.522Z,48.90
2022-10-31T18:21:01.772Z,48.70
2022-10-31T18:23:28.869Z,51.17
2022-10-31T18:25:55.902Z,52.97
2022-10-31T18:28:23.158Z,52.93
2022-10-31T18:30:50.136Z,53.03
2022-10-31T18:33:18.111Z,52.73
2022-10-31T18:35:53.199Z,53.37
2022-10-31T18:38:31.129Z,52.00
2022-10-31T18:41:04.235Z,51.80
2022-10-31T18:43:31.549Z,51.80
2022-10-31T18:46:01.565Z,53.47
2022-10-31T18:48:35.247Z,52.83
2022-10-31T18:51:40.345Z,51.73
2022-10-31T18:54:07.384Z,51.50
2022-10-31T18:56:45.467Z,51.30
2022-10-31T18:59:15.407Z,53.10
2022-10-31T19:01:42.973Z,52.80
2022-10-31T19:04:19.720Z,51.80
2022-10-31T19:07:27.063Z,49.60
2022-10-31T19:13:36.462Z,51.23
2022-10-31T19:16:20.200Z,50.03
2022-10-31T19:19:03.320Z,53.70
2022-10-31T19:21:32.456Z,50.63
2022-10-31T19:24:01.784Z,51.53
2022-10-31T19:26:29.323Z,52.53
2022-10-31T19:28:56.886Z,53.97
2022-10-31T19:31:25.434Z,59.33
2022-10-31T19:33:52.728Z,54.80
2022-10-31T19:36:20.254Z,51.87
2022-10-31T19:38:49.444Z,44.50
2022-10-31T19:41:29.267Z,51.90
2022-10-31T19:44:11.786Z,52.10
2022-10-31T19:49:39.719Z,45.07
2022-10-31T19:52:06.752Z,52.27
2022-10-31T19:54:34.069Z,52.43
2022-10-31T19:57:00.975Z,51.37
2022-10-31T19:59:27.847Z,53.67
2022-10-31T20:02:08.453Z,53.77
2022-10-31T20:04:57.644Z,54.60
2022-10-31T20:07:36.534Z,53.23
2022-10-31T20:10:22.357Z,53.97
2022-10-31T20:12:55.774Z,65.00
2022-10-31T20:15:22.726Z,53.23
2022-10-31T20:17:49.652Z,53.97
2022-10-31T20:20:17.115Z,54.33
2022-10-31T20:22:46.442Z,56.70
2022-10-31T20:25:14.381Z,52.53
2022-10-31T20:27:41.905Z,55.67
2022-10-31T20:30:09.311Z,50.93
2022-10-31T20:32:36.356Z,54.03
2022-10-31T20:35:03.211Z,52.77
2022-10-31T20:37:30.271Z,56.37
2022-10-31T20:39:57.113Z,52.67
2022-10-31T20:42:24.425Z,57.70
2022-10-31T20:44:52.368Z,54.90
2022-10-31T20:47:21.990Z,51.67
2022-10-31T20:49:52.634Z,55.97
2022-10-31T20:52:19.482Z,55.27
2022-10-31T20:54:46.384Z,57.77
2022-10-31T20:57:13.301Z,55.83
2022-10-31T20:59:41.074Z,57.33
2022-10-31T21:02:09.117Z,57.37
2022-10-31T21:04:36.575Z,57.63
2022-10-31T21:07:03.464Z,57.10
2022-10-31T21:09:30.489Z,55.83
2022-10-31T21:11:57.360Z,56.57
2022-10-31T21:14:24.506Z,55.13
2022-10-31T21:16:52.022Z,55.47
2022-10-31T21:19:19.542Z,56.40
2022-10-31T21:21:46.837Z,54.10
2022-10-31T21:24:16.232Z,55.73
2022-10-31T21:26:45.533Z,56.17
2022-10-31T21:29:14.160Z,55.47
2022-10-31T21:31:42.252Z,57.00
2022-10-31T21:34:10.132Z,54.47
2022-10-31T21:36:37.034Z,52.80
2022-10-31T21:39:04.880Z,56.57
2022-10-31T21:41:31.864Z,56.63
2022-10-31T21:43:58.937Z,55.53
2022-10-31T21:46:30.228Z,58.23
2022-10-31T21:48:57.631Z,60.97
2022-10-31T21:51:26.769Z,55.27
2022-10-31T21:54:11.926Z,57.87
2022-10-31T21:56:39.241Z,54.13
2022-10-31T21:59:06.313Z,55.77
2022-10-31T22:01:34.397Z,51.77
2022-10-31T22:04:01.717Z,55.07
2022-10-31T22:06:29.650Z,55.53
2022-10-31T22:08:58.389Z,57.60
2022-10-31T22:11:25.325Z,56.23
2022-10-31T22:13:52.207Z,57.63
2022-10-31T22:16:20.316Z,61.13
2022-10-31T22:18:48.026Z,54.90
2022-10-31T22:21:18.032Z,49.27
2022-10-31T22:23:49.901Z,63.53
2022-10-31T22:26:17.153Z,60.03
2022-10-31T22:28:45.478Z,62.07
2022-10-31T22:31:14.632Z,65.43
2022-10-31T22:33:41.508Z,70.07
2022-10-31T22:36:10.183Z,66.97
2022-10-31T22:38:39.427Z,69.70
2022-10-31T22:41:07.517Z,66.67
2022-10-31T22:43:34.513Z,70.47
2022-10-31T22:46:04.508Z,65.53
2022-10-31T22:48:34.523Z,68.37
2022-10-31T22:51:04.047Z,63.93
2022-10-31T22:53:31.011Z,70.07
2022-10-31T22:55:57.884Z,69.50
2022-10-31T22:58:25.077Z,74.33
2022-10-31T23:00:52.039Z,57.73
2022-10-31T23:03:19.150Z,63.40
2022-10-31T23:05:54.367Z,67.50
2022-10-31T23:08:21.240Z,66.30
2022-10-31T23:10:48.101Z,76.03
2022-10-31T23:13:47.911Z,71.97
2022-10-31T23:16:15.115Z,74.27
2022-10-31T23:18:50.182Z,69.13
2022-10-31T23:21:43.045Z,76.87
2022-10-31T23:24:10.952Z,70.60
2022-10-31T23:26:56.287Z,71.63
2022-10-31T23:29:23.140Z,72.57
2022-10-31T23:31:53.688Z,71.17
2022-10-31T23:34:21.274Z,77.03
2022-10-31T23:36:48.358Z,78.60
2022-10-31T23:39:17.094Z,74.30
2022-10-31T23:41:44.832Z,75.37
2022-10-31T23:44:11.792Z,72.20
2022-10-31T23:46:38.688Z,78.10
2022-10-31T23:49:06.435Z,68.30
2022-10-31T23:51:33.348Z,73.13
2022-10-31T23:54:00.373Z,66.97
2022-10-31T23:56:27.273Z,62.43
2022-10-31T23:58:54.141Z,73.00
